sensor_id;sensor_type;location;lat;lon;timestamp;temperature;humidity
46926;DHT22;32667;48.248;-1.700;2024-01-30T00:00:32;12.80;78.10
46926;DHT22;32667;48.248;-1.700;2024-01-30T00:02:57;12.80;77.50
46926;DHT22;32667;48.248;-1.700;2024-01-30T00:05:23;12.80;77.50
46926;DHT22;32667;48.248;-1.700;2024-01-30T00:07:50;12.80;77.60
46926;DHT22;32667;48.248;-1.700;2024-01-30T00:10:18;12.80;77.60
46926;DHT22;32667;48.248;-1.700;2024-01-30T00:12:44;12.80;77.60
46926;DHT22;32667;48.248;-1.700;2024-01-30T00:15:10;12.80;77.60
46926;DHT22;32667;48.248;-1.700;2024-01-30T00:17:36;12.80;77.50
46926;DHT22;32667;48.248;-1.700;2024-01-30T00:20:03;12.80;78.10
46926;DHT22;32667;48.248;-1.700;2024-01-30T00:22:31;12.80;77.50
46926;DHT22;32667;48.248;-1.700;2024-01-30T00:24:57;12.80;77.50
46926;DHT22;32667;48.248;-1.700;2024-01-30T00:27:23;12.90;77.50
46926;DHT22;32667;48.248;-1.700;2024-01-30T00:29:49;12.90;77.40
46926;DHT22;32667;48.248;-1.700;2024-01-30T00:32:17;12.80;77.50
46926;DHT22;32667;48.248;-1.700;2024-01-30T00:34:45;12.80;77.40
46926;DHT22;32667;48.248;-1.700;2024-01-30T00:37:13;12.90;77.50
46926;DHT22;32667;48.248;-1.700;2024-01-30T00:39:39;12.90;77.40
46926;DHT22;32667;48.248;-1.700;2024-01-30T00:42:05;12.90;77.40
46926;DHT22;32667;48.248;-1.700;2024-01-30T00:44:30;12.90;77.30
46926;DHT22;32667;48.248;-1.700;2024-01-30T00:46:56;12.90;77.40
46926;DHT22;32667;48.248;-1.700;2024-01-30T00:49:27;12.80;77.40
46926;DHT22;32667;48.248;-1.700;2024-01-30T00:51:55;12.80;77.40
46926;DHT22;32667;48.248;-1.700;2024-01-30T00:54:20;12.90;77.50
46926;DHT22;32667;48.248;-1.700;2024-01-30T00:56:46;12.90;77.50
46926;DHT22;32667;48.248;-1.700;2024-01-30T00:59:19;12.90;77.40
46926;DHT22;32667;48.248;-1.700;2024-01-30T01:01:47;12.90;77.40
46926;DHT22;32667;48.248;-1.700;2024-01-30T01:04:13;12.90;77.30
46926;DHT22;32667;48.248;-1.700;2024-01-30T01:06:38;12.90;77.30
46926;DHT22;32667;48.248;-1.700;2024-01-30T01:09:07;13.00;77.40
46926;DHT22;32667;48.248;-1.700;2024-01-30T01:11:33;12.90;77.30
46926;DHT22;32667;48.248;-1.700;2024-01-30T01:14:01;12.90;77.20
46926;DHT22;32667;48.248;-1.700;2024-01-30T01:16:30;13.00;77.30
46926;DHT22;32667;48.248;-1.700;2024-01-30T01:18:58;12.90;77.30
46926;DHT22;32667;48.248;-1.700;2024-01-30T01:21:27;13.00;77.40
46926;DHT22;32667;48.248;-1.700;2024-01-30T01:23:53;12.90;77.30
46926;DHT22;32667;48.248;-1.700;2024-01-30T01:26:19;12.90;77.30
46926;DHT22;32667;48.248;-1.700;2024-01-30T01:28:47;12.90;77.30
46926;DHT22;32667;48.248;-1.700;2024-01-30T01:31:15;12.90;77.40
46926;DHT22;32667;48.248;-1.700;2024-01-30T01:33:48;12.90;77.50
46926;DHT22;32667;48.248;-1.700;2024-01-30T01:36:14;12.80;77.40
46926;DHT22;32667;48.248;-1.700;2024-01-30T01:38:39;12.80;77.40
46926;DHT22;32667;48.248;-1.700;2024-01-30T01:41:07;12.80;77.50
46926;DHT22;32667;48.248;-1.700;2024-01-30T01:43:37;12.80;77.50
46926;DHT22;32667;48.248;-1.700;2024-01-30T01:46:05;12.80;77.50
46926;DHT22;32667;48.248;-1.700;2024-01-30T01:48:31;12.80;77.50
46926;DHT22;32667;48.248;-1.700;2024-01-30T01:51:00;12.80;77.50
46926;DHT22;32667;48.248;-1.700;2024-01-30T01:53:26;12.70;77.50
46926;DHT22;32667;48.248;-1.700;2024-01-30T01:55:51;12.70;77.60
46926;DHT22;32667;48.248;-1.700;2024-01-30T01:58:23;12.60;77.60
46926;DHT22;32667;48.248;-1.700;2024-01-30T02:00:54;12.60;77.60
46926;DHT22;32667;48.248;-1.700;2024-01-30T02:03:20;12.60;77.70
46926;DHT22;32667;48.248;-1.700;2024-01-30T02:05:50;12.60;77.70
46926;DHT22;32667;48.248;-1.700;2024-01-30T02:08:19;12.60;77.70
46926;DHT22;32667;48.248;-1.700;2024-01-30T02:10:44;12.50;77.70
46926;DHT22;32667;48.248;-1.700;2024-01-30T02:13:10;12.50;77.70
46926;DHT22;32667;48.248;-1.700;2024-01-30T02:15:36;12.50;77.80
46926;DHT22;32667;48.248;-1.700;2024-01-30T02:18:02;12.40;77.70
46926;DHT22;32667;48.248;-1.700;2024-01-30T02:20:31;12.50;77.80
46926;DHT22;32667;48.248;-1.700;2024-01-30T02:23:05;12.40;77.80
46926;DHT22;32667;48.248;-1.700;2024-01-30T02:25:44;12.40;77.80
46926;DHT22;32667;48.248;-1.700;2024-01-30T02:28:11;12.40;77.80
46926;DHT22;32667;48.248;-1.700;2024-01-30T02:30:38;12.40;77.80
46926;DHT22;32667;48.248;-1.700;2024-01-30T02:33:06;12.30;77.80
46926;DHT22;32667;48.248;-1.700;2024-01-30T02:35:37;12.40;77.90
46926;DHT22;32667;48.248;-1.700;2024-01-30T02:38:03;12.30;77.80
46926;DHT22;32667;48.248;-1.700;2024-01-30T02:40:30;12.30;77.90
46926;DHT22;32667;48.248;-1.700;2024-01-30T02:42:56;12.30;77.90
46926;DHT22;32667;48.248;-1.700;2024-01-30T02:45:22;12.30;77.90
46926;DHT22;32667;48.248;-1.700;2024-01-30T02:47:47;12.30;77.80
46926;DHT22;32667;48.248;-1.700;2024-01-30T02:50:46;12.30;77.90
46926;DHT22;32667;48.248;-1.700;2024-01-30T02:53:14;12.40;77.90
46926;DHT22;32667;48.248;-1.700;2024-01-30T02:55:40;12.30;77.80
46926;DHT22;32667;48.248;-1.700;2024-01-30T02:58:13;12.30;77.90
46926;DHT22;32667;48.248;-1.700;2024-01-30T03:00:41;12.40;77.80
46926;DHT22;32667;48.248;-1.700;2024-01-30T03:03:09;12.30;77.80
46926;DHT22;32667;48.248;-1.700;2024-01-30T03:05:42;12.40;77.80
46926;DHT22;32667;48.248;-1.700;2024-01-30T03:08:08;12.40;77.80
46926;DHT22;32667;48.248;-1.700;2024-01-30T03:10:34;12.30;77.80
46926;DHT22;32667;48.248;-1.700;2024-01-30T03:13:00;12.30;77.80
46926;DHT22;32667;48.248;-1.700;2024-01-30T03:15:25;12.30;77.90
46926;DHT22;32667;48.248;-1.700;2024-01-30T03:17:58;12.40;77.90
46926;DHT22;32667;48.248;-1.700;2024-01-30T03:20:34;12.30;77.90
46926;DHT22;32667;48.248;-1.700;2024-01-30T03:23:00;12.40;77.80
46926;DHT22;32667;48.248;-1.700;2024-01-30T03:25:28;12.40;77.80
46926;DHT22;32667;48.248;-1.700;2024-01-30T03:27:54;12.30;77.80
46926;DHT22;32667;48.248;-1.700;2024-01-30T03:30:24;12.30;77.80
46926;DHT22;32667;48.248;-1.700;2024-01-30T03:32:50;12.30;77.90
46926;DHT22;32667;48.248;-1.700;2024-01-30T03:35:15;12.30;77.90
46926;DHT22;32667;48.248;-1.700;2024-01-30T03:37:41;12.30;77.90
46926;DHT22;32667;48.248;-1.700;2024-01-30T03:40:07;12.30;77.90
46926;DHT22;32667;48.248;-1.700;2024-01-30T03:42:33;12.20;78.00
46926;DHT22;32667;48.248;-1.700;2024-01-30T03:45:06;12.20;78.00
46926;DHT22;32667;48.248;-1.700;2024-01-30T03:47:32;12.20;77.90
46926;DHT22;32667;48.248;-1.700;2024-01-30T03:50:00;12.20;78.00
46926;DHT22;32667;48.248;-1.700;2024-01-30T03:52:26;12.20;77.90
46926;DHT22;32667;48.248;-1.700;2024-01-30T03:54:51;12.20;77.90
46926;DHT22;32667;48.248;-1.700;2024-01-30T03:57:23;12.20;78.00
46926;DHT22;32667;48.248;-1.700;2024-01-30T03:59:48;12.20;78.00
46926;DHT22;32667;48.248;-1.700;2024-01-30T04:02:14;12.20;78.00
46926;DHT22;32667;48.248;-1.700;2024-01-30T04:04:40;12.20;77.90
46926;DHT22;32667;48.248;-1.700;2024-01-30T04:07:08;12.10;78.00
46926;DHT22;32667;48.248;-1.700;2024-01-30T04:09:33;12.00;78.00
46926;DHT22;32667;48.248;-1.700;2024-01-30T04:11:59;12.00;78.10
46926;DHT22;32667;48.248;-1.700;2024-01-30T04:14:25;12.00;78.20
46926;DHT22;32667;48.248;-1.700;2024-01-30T04:16:51;12.00;78.20
46926;DHT22;32667;48.248;-1.700;2024-01-30T04:19:16;12.00;78.10
46926;DHT22;32667;48.248;-1.700;2024-01-30T04:21:42;12.10;78.10
46926;DHT22;32667;48.248;-1.700;2024-01-30T04:24:10;12.10;78.00
46926;DHT22;32667;48.248;-1.700;2024-01-30T04:26:36;12.10;77.90
46926;DHT22;32667;48.248;-1.700;2024-01-30T04:29:02;12.10;77.90
46926;DHT22;32667;48.248;-1.700;2024-01-30T04:31:28;12.10;77.90
46926;DHT22;32667;48.248;-1.700;2024-01-30T04:33:58;12.00;77.90
46926;DHT22;32667;48.248;-1.700;2024-01-30T04:36:24;12.00;78.00
46926;DHT22;32667;48.248;-1.700;2024-01-30T04:38:50;11.90;78.00
46926;DHT22;32667;48.248;-1.700;2024-01-30T04:41:16;11.90;78.10
46926;DHT22;32667;48.248;-1.700;2024-01-30T04:43:46;11.80;78.10
46926;DHT22;32667;48.248;-1.700;2024-01-30T04:46:12;11.80;78.20
46926;DHT22;32667;48.248;-1.700;2024-01-30T04:48:37;11.80;78.30
46926;DHT22;32667;48.248;-1.700;2024-01-30T04:51:04;11.70;78.30
46926;DHT22;32667;48.248;-1.700;2024-01-30T04:53:30;11.70;78.30
46926;DHT22;32667;48.248;-1.700;2024-01-30T04:55:58;11.60;78.40
46926;DHT22;32667;48.248;-1.700;2024-01-30T04:58:27;11.70;78.50
46926;DHT22;32667;48.248;-1.700;2024-01-30T05:01:00;11.60;78.30
46926;DHT22;32667;48.248;-1.700;2024-01-30T05:03:25;11.60;78.30
46926;DHT22;32667;48.248;-1.700;2024-01-30T05:05:51;11.60;78.40
46926;DHT22;32667;48.248;-1.700;2024-01-30T05:08:19;11.60;78.30
46926;DHT22;32667;48.248;-1.700;2024-01-30T05:10:47;11.60;78.40
46926;DHT22;32667;48.248;-1.700;2024-01-30T05:13:16;11.50;78.30
46926;DHT22;32667;48.248;-1.700;2024-01-30T05:15:46;11.50;78.40
46926;DHT22;32667;48.248;-1.700;2024-01-30T05:18:19;11.40;78.50
46926;DHT22;32667;48.248;-1.700;2024-01-30T05:20:47;11.40;78.60
46926;DHT22;32667;48.248;-1.700;2024-01-30T05:23:12;11.40;78.60
46926;DHT22;32667;48.248;-1.700;2024-01-30T05:25:46;11.40;78.60
46926;DHT22;32667;48.248;-1.700;2024-01-30T05:28:14;11.40;78.60
46926;DHT22;32667;48.248;-1.700;2024-01-30T05:30:40;11.40;78.60
46926;DHT22;32667;48.248;-1.700;2024-01-30T05:33:13;11.30;78.50
46926;DHT22;32667;48.248;-1.700;2024-01-30T05:35:39;11.30;78.60
46926;DHT22;32667;48.248;-1.700;2024-01-30T05:38:04;11.20;78.60
46926;DHT22;32667;48.248;-1.700;2024-01-30T05:40:30;11.20;78.70
46926;DHT22;32667;48.248;-1.700;2024-01-30T05:43:03;11.10;78.70
46926;DHT22;32667;48.248;-1.700;2024-01-30T05:45:29;11.00;78.80
46926;DHT22;32667;48.248;-1.700;2024-01-30T05:47:55;11.00;79.00
46926;DHT22;32667;48.248;-1.700;2024-01-30T05:50:23;11.00;79.00
46926;DHT22;32667;48.248;-1.700;2024-01-30T05:52:50;10.90;79.10
46926;DHT22;32667;48.248;-1.700;2024-01-30T05:55:16;11.00;79.10
46926;DHT22;32667;48.248;-1.700;2024-01-30T05:57:44;11.00;79.00
46926;DHT22;32667;48.248;-1.700;2024-01-30T06:00:10;11.00;78.90
46926;DHT22;32667;48.248;-1.700;2024-01-30T06:02:36;11.00;78.80
46926;DHT22;32667;48.248;-1.700;2024-01-30T06:05:02;10.90;78.80
46926;DHT22;32667;48.248;-1.700;2024-01-30T06:07:28;10.90;78.90
46926;DHT22;32667;48.248;-1.700;2024-01-30T06:09:56;10.80;78.90
46926;DHT22;32667;48.248;-1.700;2024-01-30T06:12:25;10.80;78.90
46926;DHT22;32667;48.248;-1.700;2024-01-30T06:14:56;10.80;79.00
46926;DHT22;32667;48.248;-1.700;2024-01-30T06:17:23;10.80;79.00
46926;DHT22;32667;48.248;-1.700;2024-01-30T06:19:51;10.70;79.00
46926;DHT22;32667;48.248;-1.700;2024-01-30T06:22:17;10.60;79.10
46926;DHT22;32667;48.248;-1.700;2024-01-30T06:24:43;10.60;79.20
46926;DHT22;32667;48.248;-1.700;2024-01-30T06:27:17;10.50;79.80
46926;DHT22;32667;48.248;-1.700;2024-01-30T06:29:43;10.40;79.30
46926;DHT22;32667;48.248;-1.700;2024-01-30T06:32:09;10.40;79.40
46926;DHT22;32667;48.248;-1.700;2024-01-30T06:34:42;10.20;79.50
46926;DHT22;32667;48.248;-1.700;2024-01-30T06:37:09;10.20;79.60
46926;DHT22;32667;48.248;-1.700;2024-01-30T06:39:35;10.10;79.70
46926;DHT22;32667;48.248;-1.700;2024-01-30T06:42:01;10.00;79.80
46926;DHT22;32667;48.248;-1.700;2024-01-30T06:44:29;10.00;79.90
46926;DHT22;32667;48.248;-1.700;2024-01-30T06:46:55;9.90;79.90
46926;DHT22;32667;48.248;-1.700;2024-01-30T06:49:20;9.90;80.00
46926;DHT22;32667;48.248;-1.700;2024-01-30T06:51:47;9.90;80.00
46926;DHT22;32667;48.248;-1.700;2024-01-30T06:54:13;9.80;80.00
46926;DHT22;32667;48.248;-1.700;2024-01-30T06:56:43;9.90;80.10
46926;DHT22;32667;48.248;-1.700;2024-01-30T06:59:09;9.90;80.00
46926;DHT22;32667;48.248;-1.700;2024-01-30T07:01:35;9.90;79.90
46926;DHT22;32667;48.248;-1.700;2024-01-30T07:04:01;9.90;79.80
46926;DHT22;32667;48.248;-1.700;2024-01-30T07:06:28;9.90;79.70
46926;DHT22;32667;48.248;-1.700;2024-01-30T07:08:57;9.90;79.60
46926;DHT22;32667;48.248;-1.700;2024-01-30T07:11:25;10.00;79.60
46926;DHT22;32667;48.248;-1.700;2024-01-30T07:13:51;10.00;79.50
46926;DHT22;32667;48.248;-1.700;2024-01-30T07:16:17;10.00;79.50
46926;DHT22;32667;48.248;-1.700;2024-01-30T07:18:43;10.10;79.40
46926;DHT22;32667;48.248;-1.700;2024-01-30T07:21:14;10.10;79.20
46926;DHT22;32667;48.248;-1.700;2024-01-30T07:23:40;10.10;79.10
46926;DHT22;32667;48.248;-1.700;2024-01-30T07:26:07;10.20;79.10
46926;DHT22;32667;48.248;-1.700;2024-01-30T07:28:34;10.20;79.00
46926;DHT22;32667;48.248;-1.700;2024-01-30T07:31:01;10.20;78.90
46926;DHT22;32667;48.248;-1.700;2024-01-30T07:33:29;10.20;78.90
46926;DHT22;32667;48.248;-1.700;2024-01-30T07:35:55;10.30;78.90
46926;DHT22;32667;48.248;-1.700;2024-01-30T07:38:24;10.30;78.80
46926;DHT22;32667;48.248;-1.700;2024-01-30T07:40:49;10.30;78.70
46926;DHT22;32667;48.248;-1.700;2024-01-30T07:43:15;10.30;78.80
46926;DHT22;32667;48.248;-1.700;2024-01-30T07:45:41;10.30;79.00
46926;DHT22;32667;48.248;-1.700;2024-01-30T07:48:07;10.30;79.00
46926;DHT22;32667;48.248;-1.700;2024-01-30T07:50:35;10.20;78.90
46926;DHT22;32667;48.248;-1.700;2024-01-30T07:53:02;10.30;78.90
46926;DHT22;32667;48.248;-1.700;2024-01-30T07:55:52;10.30;78.90
46926;DHT22;32667;48.248;-1.700;2024-01-30T07:58:21;10.30;78.80
46926;DHT22;32667;48.248;-1.700;2024-01-30T08:00:49;10.30;78.80
46926;DHT22;32667;48.248;-1.700;2024-01-30T08:03:15;10.30;78.80
46926;DHT22;32667;48.248;-1.700;2024-01-30T08:05:43;10.30;78.80
46926;DHT22;32667;48.248;-1.700;2024-01-30T08:08:13;10.30;78.80
46926;DHT22;32667;48.248;-1.700;2024-01-30T08:10:38;10.30;78.80
46926;DHT22;32667;48.248;-1.700;2024-01-30T08:13:04;10.20;78.80
46926;DHT22;32667;48.248;-1.700;2024-01-30T08:15:37;10.20;78.90
46926;DHT22;32667;48.248;-1.700;2024-01-30T08:18:03;10.10;79.00
46926;DHT22;32667;48.248;-1.700;2024-01-30T08:20:32;10.10;79.10
46926;DHT22;32667;48.248;-1.700;2024-01-30T08:22:59;10.00;79.10
46926;DHT22;32667;48.248;-1.700;2024-01-30T08:25:25;10.00;79.20
46926;DHT22;32667;48.248;-1.700;2024-01-30T08:27:54;10.00;79.20
46926;DHT22;32667;48.248;-1.700;2024-01-30T08:30:19;10.00;79.20
46926;DHT22;32667;48.248;-1.700;2024-01-30T08:32:45;10.00;79.10
46926;DHT22;32667;48.248;-1.700;2024-01-30T08:35:13;10.00;79.00
46926;DHT22;32667;48.248;-1.700;2024-01-30T08:37:42;10.10;79.10
46926;DHT22;32667;48.248;-1.700;2024-01-30T08:40:08;10.00;79.00
46926;DHT22;32667;48.248;-1.700;2024-01-30T08:42:34;10.10;79.00
46926;DHT22;32667;48.248;-1.700;2024-01-30T08:45:02;10.00;79.50
46926;DHT22;32667;48.248;-1.700;2024-01-30T08:47:30;10.00;79.00
46926;DHT22;32667;48.248;-1.700;2024-01-30T08:49:59;10.00;79.00
46926;DHT22;32667;48.248;-1.700;2024-01-30T08:52:27;10.10;78.90
46926;DHT22;32667;48.248;-1.700;2024-01-30T08:54:52;10.20;78.90
46926;DHT22;32667;48.248;-1.700;2024-01-30T08:57:18;10.20;78.80
46926;DHT22;32667;48.248;-1.700;2024-01-30T08:59:44;10.40;78.70
46926;DHT22;32667;48.248;-1.700;2024-01-30T09:02:13;10.50;78.60
46926;DHT22;32667;48.248;-1.700;2024-01-30T09:04:41;10.50;78.40
46926;DHT22;32667;48.248;-1.700;2024-01-30T09:07:08;10.60;78.30
46926;DHT22;32667;48.248;-1.700;2024-01-30T09:09:34;10.70;78.20
46926;DHT22;32667;48.248;-1.700;2024-01-30T09:12:02;10.70;78.10
46926;DHT22;32667;48.248;-1.700;2024-01-30T09:14:32;10.80;78.10
46926;DHT22;32667;48.248;-1.700;2024-01-30T09:17:02;10.80;77.90
46926;DHT22;32667;48.248;-1.700;2024-01-30T09:19:31;10.90;77.90
46926;DHT22;32667;48.248;-1.700;2024-01-30T09:21:57;10.90;77.90
46926;DHT22;32667;48.248;-1.700;2024-01-30T09:24:22;11.00;77.80
46926;DHT22;32667;48.248;-1.700;2024-01-30T09:26:48;11.10;77.70
46926;DHT22;32667;48.248;-1.700;2024-01-30T09:29:14;11.10;77.60
46926;DHT22;32667;48.248;-1.700;2024-01-30T09:31:43;11.20;77.50
46926;DHT22;32667;48.248;-1.700;2024-01-30T09:34:09;11.20;77.40
46926;DHT22;32667;48.248;-1.700;2024-01-30T09:36:35;11.30;77.40
46926;DHT22;32667;48.248;-1.700;2024-01-30T09:39:02;11.20;77.50
46926;DHT22;32667;48.248;-1.700;2024-01-30T09:41:30;11.20;77.50
46926;DHT22;32667;48.248;-1.700;2024-01-30T09:43:57;11.20;77.70
46926;DHT22;32667;48.248;-1.700;2024-01-30T09:46:27;11.20;77.80
46926;DHT22;32667;48.248;-1.700;2024-01-30T09:48:55;11.20;77.80
46926;DHT22;32667;48.248;-1.700;2024-01-30T09:51:21;11.20;77.80
46926;DHT22;32667;48.248;-1.700;2024-01-30T09:53:50;11.20;77.80
46926;DHT22;32667;48.248;-1.700;2024-01-30T09:56:16;11.20;77.80
46926;DHT22;32667;48.248;-1.700;2024-01-30T09:58:42;11.20;77.80
46926;DHT22;32667;48.248;-1.700;2024-01-30T10:01:10;11.20;77.80
46926;DHT22;32667;48.248;-1.700;2024-01-30T10:03:36;11.20;77.80
46926;DHT22;32667;48.248;-1.700;2024-01-30T10:06:05;11.20;77.80
46926;DHT22;32667;48.248;-1.700;2024-01-30T10:08:31;11.20;77.80
46926;DHT22;32667;48.248;-1.700;2024-01-30T10:10:57;11.20;77.80
46926;DHT22;32667;48.248;-1.700;2024-01-30T10:13:23;11.30;77.80
46926;DHT22;32667;48.248;-1.700;2024-01-30T10:15:49;11.30;77.70
46926;DHT22;32667;48.248;-1.700;2024-01-30T10:18:14;11.40;77.70
46926;DHT22;32667;48.248;-1.700;2024-01-30T10:20:42;11.40;77.60
46926;DHT22;32667;48.248;-1.700;2024-01-30T10:23:08;11.40;77.60
46926;DHT22;32667;48.248;-1.700;2024-01-30T10:25:35;11.40;77.50
46926;DHT22;32667;48.248;-1.700;2024-01-30T10:28:01;11.40;77.50
46926;DHT22;32667;48.248;-1.700;2024-01-30T10:30:27;11.50;77.60
46926;DHT22;32667;48.248;-1.700;2024-01-30T10:32:53;11.50;77.50
46926;DHT22;32667;48.248;-1.700;2024-01-30T10:35:19;11.50;77.50
46926;DHT22;32667;48.248;-1.700;2024-01-30T10:37:47;11.50;77.50
46926;DHT22;32667;48.248;-1.700;2024-01-30T10:40:14;11.60;77.50
46926;DHT22;32667;48.248;-1.700;2024-01-30T10:42:45;11.70;77.40
46926;DHT22;32667;48.248;-1.700;2024-01-30T10:45:12;11.80;77.20
46926;DHT22;32667;48.248;-1.700;2024-01-30T10:47:40;11.90;77.00
46926;DHT22;32667;48.248;-1.700;2024-01-30T10:50:08;12.00;76.80
46926;DHT22;32667;48.248;-1.700;2024-01-30T10:52:36;12.10;76.70
46926;DHT22;32667;48.248;-1.700;2024-01-30T10:55:04;12.10;76.60
46926;DHT22;32667;48.248;-1.700;2024-01-30T10:57:34;12.10;76.70
46926;DHT22;32667;48.248;-1.700;2024-01-30T11:00:11;12.10;76.70
46926;DHT22;32667;48.248;-1.700;2024-01-30T11:02:45;12.10;76.70
46926;DHT22;32667;48.248;-1.700;2024-01-30T11:05:12;12.10;76.70
46926;DHT22;32667;48.248;-1.700;2024-01-30T11:07:39;12.00;76.70
46926;DHT22;32667;48.248;-1.700;2024-01-30T11:10:09;12.00;76.80
46926;DHT22;32667;48.248;-1.700;2024-01-30T11:12:41;12.00;77.00
46926;DHT22;32667;48.248;-1.700;2024-01-30T11:15:18;12.00;77.10
46926;DHT22;32667;48.248;-1.700;2024-01-30T11:17:55;12.00;77.10
46926;DHT22;32667;48.248;-1.700;2024-01-30T11:20:27;12.00;77.00
46926;DHT22;32667;48.248;-1.700;2024-01-30T11:22:54;12.00;77.00
46926;DHT22;32667;48.248;-1.700;2024-01-30T11:25:22;12.00;77.00
46926;DHT22;32667;48.248;-1.700;2024-01-30T11:27:51;11.90;77.00
46926;DHT22;32667;48.248;-1.700;2024-01-30T11:30:26;11.80;77.20
46926;DHT22;32667;48.248;-1.700;2024-01-30T11:33:01;11.80;77.30
46926;DHT22;32667;48.248;-1.700;2024-01-30T11:35:35;11.70;77.50
46926;DHT22;32667;48.248;-1.700;2024-01-30T11:38:01;11.70;77.40
46926;DHT22;32667;48.248;-1.700;2024-01-30T11:40:32;11.70;77.50
46926;DHT22;32667;48.248;-1.700;2024-01-30T11:43:00;11.80;77.40
46926;DHT22;32667;48.248;-1.700;2024-01-30T11:45:29;11.80;77.30
46926;DHT22;32667;48.248;-1.700;2024-01-30T11:47:55;11.80;77.20
46926;DHT22;32667;48.248;-1.700;2024-01-30T11:50:21;11.90;77.20
46926;DHT22;32667;48.248;-1.700;2024-01-30T11:52:47;11.90;77.00
46926;DHT22;32667;48.248;-1.700;2024-01-30T11:55:15;11.90;77.00
46926;DHT22;32667;48.248;-1.700;2024-01-30T11:57:41;11.90;77.00
46926;DHT22;32667;48.248;-1.700;2024-01-30T12:00:20;12.00;77.00
46926;DHT22;32667;48.248;-1.700;2024-01-30T12:02:53;12.00;77.00
46926;DHT22;32667;48.248;-1.700;2024-01-30T12:05:26;12.10;76.90
46926;DHT22;32667;48.248;-1.700;2024-01-30T12:07:52;12.20;76.70
46926;DHT22;32667;48.248;-1.700;2024-01-30T12:10:18;12.40;76.50
46926;DHT22;32667;48.248;-1.700;2024-01-30T12:12:49;12.50;76.30
46926;DHT22;32667;48.248;-1.700;2024-01-30T12:15:18;12.50;76.10
46926;DHT22;32667;48.248;-1.700;2024-01-30T12:17:47;12.50;76.10
46926;DHT22;32667;48.248;-1.700;2024-01-30T12:20:14;12.50;76.20
46926;DHT22;32667;48.248;-1.700;2024-01-30T12:22:42;12.50;76.20
46926;DHT22;32667;48.248;-1.700;2024-01-30T12:25:09;12.50;76.20
46926;DHT22;32667;48.248;-1.700;2024-01-30T12:27:37;12.50;76.30
46926;DHT22;32667;48.248;-1.700;2024-01-30T12:30:10;12.50;76.50
46926;DHT22;32667;48.248;-1.700;2024-01-30T12:32:44;12.50;76.60
46926;DHT22;32667;48.248;-1.700;2024-01-30T12:35:16;12.60;76.60
46926;DHT22;32667;48.248;-1.700;2024-01-30T12:37:46;12.70;76.30
46926;DHT22;32667;48.248;-1.700;2024-01-30T12:40:14;12.70;76.20
46926;DHT22;32667;48.248;-1.700;2024-01-30T12:42:41;12.80;76.20
46926;DHT22;32667;48.248;-1.700;2024-01-30T12:45:14;12.80;76.10
46926;DHT22;32667;48.248;-1.700;2024-01-30T12:47:41;12.90;76.00
46926;DHT22;32667;48.248;-1.700;2024-01-30T12:50:10;13.00;75.90
46926;DHT22;32667;48.248;-1.700;2024-01-30T12:52:37;13.00;75.90
46926;DHT22;32667;48.248;-1.700;2024-01-30T12:55:04;13.00;75.90
46926;DHT22;32667;48.248;-1.700;2024-01-30T12:57:32;13.00;76.00
46926;DHT22;32667;48.248;-1.700;2024-01-30T12:59:58;13.00;75.90
46926;DHT22;32667;48.248;-1.700;2024-01-30T13:02:24;13.10;75.90
46926;DHT22;32667;48.248;-1.700;2024-01-30T13:04:49;13.10;75.90
46926;DHT22;32667;48.248;-1.700;2024-01-30T13:07:15;13.20;75.90
46926;DHT22;32667;48.248;-1.700;2024-01-30T13:09:41;13.20;75.90
46926;DHT22;32667;48.248;-1.700;2024-01-30T13:12:07;13.20;75.80
46926;DHT22;32667;48.248;-1.700;2024-01-30T13:14:35;13.20;75.80
46926;DHT22;32667;48.248;-1.700;2024-01-30T13:17:01;13.10;75.90
46926;DHT22;32667;48.248;-1.700;2024-01-30T13:19:26;13.20;76.10
46926;DHT22;32667;48.248;-1.700;2024-01-30T13:21:54;13.20;76.00
46926;DHT22;32667;48.248;-1.700;2024-01-30T13:24:22;13.30;75.90
46926;DHT22;32667;48.248;-1.700;2024-01-30T13:26:51;13.50;75.80
46926;DHT22;32667;48.248;-1.700;2024-01-30T13:29:16;13.60;75.60
46926;DHT22;32667;48.248;-1.700;2024-01-30T13:31:42;13.80;75.20
46926;DHT22;32667;48.248;-1.700;2024-01-30T13:34:09;14.00;74.90
46926;DHT22;32667;48.248;-1.700;2024-01-30T13:36:35;14.00;74.80
46926;DHT22;32667;48.248;-1.700;2024-01-30T13:39:01;14.00;74.90
46926;DHT22;32667;48.248;-1.700;2024-01-30T13:41:27;14.00;74.90
46926;DHT22;32667;48.248;-1.700;2024-01-30T13:43:53;13.90;75.00
46926;DHT22;32667;48.248;-1.700;2024-01-30T13:46:19;13.90;75.20
46926;DHT22;32667;48.248;-1.700;2024-01-30T13:48:45;13.80;75.30
46926;DHT22;32667;48.248;-1.700;2024-01-30T13:51:10;13.70;75.40
46926;DHT22;32667;48.248;-1.700;2024-01-30T13:53:38;13.60;75.60
46926;DHT22;32667;48.248;-1.700;2024-01-30T13:56:04;13.50;75.90
46926;DHT22;32667;48.248;-1.700;2024-01-30T13:58:33;13.40;76.00
46926;DHT22;32667;48.248;-1.700;2024-01-30T14:00:59;13.30;76.10
46926;DHT22;32667;48.248;-1.700;2024-01-30T14:03:24;13.30;76.20
46926;DHT22;32667;48.248;-1.700;2024-01-30T14:05:50;13.30;76.30
46926;DHT22;32667;48.248;-1.700;2024-01-30T14:08:16;13.30;76.40
46926;DHT22;32667;48.248;-1.700;2024-01-30T14:10:42;13.20;76.30
46926;DHT22;32667;48.248;-1.700;2024-01-30T14:13:08;13.20;76.40
46926;DHT22;32667;48.248;-1.700;2024-01-30T14:15:33;13.20;76.40
46926;DHT22;32667;48.248;-1.700;2024-01-30T14:17:59;13.10;76.40
46926;DHT22;32667;48.248;-1.700;2024-01-30T14:20:25;13.10;76.40
46926;DHT22;32667;48.248;-1.700;2024-01-30T14:22:50;13.10;76.40
46926;DHT22;32667;48.248;-1.700;2024-01-30T14:25:18;13.00;76.50
46926;DHT22;32667;48.248;-1.700;2024-01-30T14:27:45;13.00;76.50
46926;DHT22;32667;48.248;-1.700;2024-01-30T14:30:10;13.00;76.60
46926;DHT22;32667;48.248;-1.700;2024-01-30T14:32:36;12.90;76.70
46926;DHT22;32667;48.248;-1.700;2024-01-30T14:35:04;13.00;76.60
46926;DHT22;32667;48.248;-1.700;2024-01-30T14:37:30;13.00;76.60
46926;DHT22;32667;48.248;-1.700;2024-01-30T14:39:56;13.00;76.40
46926;DHT22;32667;48.248;-1.700;2024-01-30T14:42:22;13.10;76.40
46926;DHT22;32667;48.248;-1.700;2024-01-30T14:44:47;13.10;76.30
46926;DHT22;32667;48.248;-1.700;2024-01-30T14:47:14;13.10;76.30
46926;DHT22;32667;48.248;-1.700;2024-01-30T14:49:40;13.10;76.20
46926;DHT22;32667;48.248;-1.700;2024-01-30T14:52:06;13.10;76.20
46926;DHT22;32667;48.248;-1.700;2024-01-30T14:54:34;13.10;76.20
46926;DHT22;32667;48.248;-1.700;2024-01-30T14:57:04;13.00;76.20
46926;DHT22;32667;48.248;-1.700;2024-01-30T14:59:30;13.00;76.30
46926;DHT22;32667;48.248;-1.700;2024-01-30T15:01:56;12.90;76.40
46926;DHT22;32667;48.248;-1.700;2024-01-30T15:04:21;12.80;76.50
46926;DHT22;32667;48.248;-1.700;2024-01-30T15:06:48;12.80;76.70
46926;DHT22;32667;48.248;-1.700;2024-01-30T15:09:15;12.70;76.80
46926;DHT22;32667;48.248;-1.700;2024-01-30T15:11:43;12.70;76.80
46926;DHT22;32667;48.248;-1.700;2024-01-30T15:14:09;12.70;76.90
46926;DHT22;32667;48.248;-1.700;2024-01-30T15:16:35;12.70;76.90
46926;DHT22;32667;48.248;-1.700;2024-01-30T15:19:02;12.60;76.90